sensor_id;sensor_type;location;lat;lon;timestamp;P1;durP1;ratioP1;P2;durP2;ratioP2
71343;SDS011;59146;43.850;25.948;2023-06-04T00:00:10;12.20;;;3.35;;
71343;SDS011;59146;43.850;25.948;2023-06-04T00:02:36;8.73;;;2.65;;
71343;SDS011;59146;43.850;25.948;2023-06-04T00:05:02;4.75;;;2.55;;
71343;SDS011;59146;43.850;25.948;2023-06-04T00:07:27;4.88;;;2.17;;
71343;SDS011;59146;43.850;25.948;2023-06-04T00:09:52;4.55;;;2.05;;
71343;SDS011;59146;43.850;25.948;2023-06-04T00:12:18;6.20;;;2.65;;
71343;SDS011;59146;43.850;25.948;2023-06-04T00:14:44;6.85;;;2.25;;
71343;SDS011;59146;43.850;25.948;2023-06-04T00:17:09;3.28;;;2.15;;
71343;SDS011;59146;43.850;25.948;2023-06-04T00:19:37;3.95;;;2.10;;
71343;SDS011;59146;43.850;25.948;2023-06-04T00:22:03;7.97;;;2.47;;
71343;SDS011;59146;43.850;25.948;2023-06-04T00:24:30;6.05;;;2.05;;
71343;SDS011;59146;43.850;25.948;2023-06-04T00:26:56;3.47;;;1.98;;
71343;SDS011;59146;43.850;25.948;2023-06-04T00:29:21;4.65;;;1.70;;
71343;SDS011;59146;43.850;25.948;2023-06-04T00:31:47;8.73;;;2.47;;
71343;SDS011;59146;43.850;25.948;2023-06-04T00:34:12;2.28;;;2.05;;
71343;SDS011;59146;43.850;25.948;2023-06-04T00:36:38;4.60;;;2.45;;
71343;SDS011;59146;43.850;25.948;2023-06-04T00:39:05;4.68;;;2.25;;
71343;SDS011;59146;43.850;25.948;2023-06-04T00:41:31;3.55;;;2.20;;
71343;SDS011;59146;43.850;25.948;2023-06-04T00:43:56;3.05;;;2.05;;
71343;SDS011;59146;43.850;25.948;2023-06-04T00:46:25;8.70;;;2.50;;
71343;SDS011;59146;43.850;25.948;2023-06-04T00:48:51;4.70;;;2.50;;
71343;SDS011;59146;43.850;25.948;2023-06-04T00:51:18;6.00;;;1.88;;
71343;SDS011;59146;43.850;25.948;2023-06-04T00:53:45;3.08;;;2.00;;
71343;SDS011;59146;43.850;25.948;2023-06-04T00:56:11;5.55;;;2.70;;
71343;SDS011;59146;43.850;25.948;2023-06-04T00:58:37;5.85;;;2.67;;
71343;SDS011;59146;43.850;25.948;2023-06-04T01:01:09;4.75;;;2.40;;
71343;SDS011;59146;43.850;25.948;2023-06-04T01:03:42;5.78;;;2.20;;
71343;SDS011;59146;43.850;25.948;2023-06-04T01:06:24;6.53;;;2.50;;
71343;SDS011;59146;43.850;25.948;2023-06-04T01:08:53;5.97;;;2.03;;
71343;SDS011;59146;43.850;25.948;2023-06-04T01:11:32;7.18;;;2.63;;
71343;SDS011;59146;43.850;25.948;2023-06-04T01:13:59;8.95;;;3.28;;
71343;SDS011;59146;43.850;25.948;2023-06-04T01:16:26;13.07;;;3.75;;
71343;SDS011;59146;43.850;25.948;2023-06-04T01:18:55;14.95;;;3.25;;
71343;SDS011;59146;43.850;25.948;2023-06-04T01:21:24;11.48;;;3.70;;
71343;SDS011;59146;43.850;25.948;2023-06-04T01:23:52;18.65;;;4.05;;
71343;SDS011;59146;43.850;25.948;2023-06-04T01:26:29;8.45;;;2.58;;
71343;SDS011;59146;43.850;25.948;2023-06-04T01:28:56;8.60;;;2.30;;
71343;SDS011;59146;43.850;25.948;2023-06-04T01:31:23;8.38;;;2.25;;
71343;SDS011;59146;43.850;25.948;2023-06-04T01:33:54;8.38;;;2.53;;
71343;SDS011;59146;43.850;25.948;2023-06-04T01:36:22;4.13;;;2.20;;
71343;SDS011;59146;43.850;25.948;2023-06-04T01:38:48;5.97;;;2.70;;
71343;SDS011;59146;43.850;25.948;2023-06-04T01:41:13;9.68;;;3.05;;
71343;SDS011;59146;43.850;25.948;2023-06-04T01:43:39;8.27;;;2.55;;
71343;SDS011;59146;43.850;25.948;2023-06-04T01:46:04;7.18;;;2.83;;
71343;SDS011;59146;43.850;25.948;2023-06-04T01:48:30;8.63;;;2.50;;
71343;SDS011;59146;43.850;25.948;2023-06-04T01:50:57;8.50;;;2.78;;
71343;SDS011;59146;43.850;25.948;2023-06-04T01:53:22;10.55;;;2.30;;
71343;SDS011;59146;43.850;25.948;2023-06-04T01:55:48;4.43;;;2.65;;
71343;SDS011;59146;43.850;25.948;2023-06-04T01:58:14;5.55;;;2.55;;
71343;SDS011;59146;43.850;25.948;2023-06-04T02:00:43;8.10;;;2.05;;
71343;SDS011;59146;43.850;25.948;2023-06-04T02:03:09;7.55;;;2.13;;
71343;SDS011;59146;43.850;25.948;2023-06-04T02:05:35;9.82;;;2.33;;
71343;SDS011;59146;43.850;25.948;2023-06-04T02:08:01;4.93;;;2.75;;
71343;SDS011;59146;43.850;25.948;2023-06-04T02:10:29;6.82;;;2.72;;
71343;SDS011;59146;43.850;25.948;2023-06-04T02:12:57;4.47;;;2.50;;
71343;SDS011;59146;43.850;25.948;2023-06-04T02:15:24;5.60;;;2.47;;
71343;SDS011;59146;43.850;25.948;2023-06-04T02:17:51;8.23;;;2.45;;
71343;SDS011;59146;43.850;25.948;2023-06-04T02:20:20;9.00;;;3.45;;
71343;SDS011;59146;43.850;25.948;2023-06-04T02:22:45;18.75;;;4.68;;
71343;SDS011;59146;43.850;25.948;2023-06-04T02:25:11;12.35;;;3.10;;
71343;SDS011;59146;43.850;25.948;2023-06-04T02:27:36;15.77;;;4.15;;
71343;SDS011;59146;43.850;25.948;2023-06-04T02:30:02;10.50;;;3.10;;
71343;SDS011;59146;43.850;25.948;2023-06-04T02:32:29;10.95;;;3.53;;
71343;SDS011;59146;43.850;25.948;2023-06-04T02:34:55;8.95;;;2.25;;
71343;SDS011;59146;43.850;25.948;2023-06-04T02:37:21;9.52;;;3.08;;
71343;SDS011;59146;43.850;25.948;2023-06-04T02:39:47;10.55;;;2.60;;
71343;SDS011;59146;43.850;25.948;2023-06-04T02:42:12;10.60;;;2.63;;
71343;SDS011;59146;43.850;25.948;2023-06-04T02:44:38;11.13;;;3.30;;
71343;SDS011;59146;43.850;25.948;2023-06-04T02:47:03;11.95;;;3.53;;
71343;SDS011;59146;43.850;25.948;2023-06-04T02:49:29;15.15;;;3.08;;
71343;SDS011;59146;43.850;25.948;2023-06-04T02:51:55;13.38;;;4.57;;
71343;SDS011;59146;43.850;25.948;2023-06-04T02:54:20;26.27;;;5.47;;
71343;SDS011;59146;43.850;25.948;2023-06-04T02:56:46;29.10;;;5.07;;
71343;SDS011;59146;43.850;25.948;2023-06-04T02:59:14;14.90;;;5.10;;
71343;SDS011;59146;43.850;25.948;2023-06-04T03:01:39;18.50;;;5.03;;
71343;SDS011;59146;43.850;25.948;2023-06-04T03:04:05;13.45;;;4.32;;
71343;SDS011;59146;43.850;25.948;2023-06-04T03:06:35;18.48;;;4.80;;
71343;SDS011;59146;43.850;25.948;2023-06-04T03:09:03;13.80;;;4.60;;
71343;SDS011;59146;43.850;25.948;2023-06-04T03:11:29;14.65;;;4.55;;
71343;SDS011;59146;43.850;25.948;2023-06-04T03:13:55;21.05;;;4.93;;
71343;SDS011;59146;43.850;25.948;2023-06-04T03:16:20;13.55;;;4.60;;
71343;SDS011;59146;43.850;25.948;2023-06-04T03:18:46;25.48;;;5.32;;
71343;SDS011;59146;43.850;25.948;2023-06-04T03:21:12;16.10;;;4.82;;
71343;SDS011;59146;43.850;25.948;2023-06-04T03:23:38;11.85;;;4.63;;
71343;SDS011;59146;43.850;25.948;2023-06-04T03:26:05;19.15;;;5.15;;
71343;SDS011;59146;43.850;25.948;2023-06-04T03:28:31;15.90;;;6.05;;
71343;SDS011;59146;43.850;25.948;2023-06-04T03:30:57;22.05;;;5.35;;
71343;SDS011;59146;43.850;25.948;2023-06-04T03:33:23;20.88;;;4.90;;
71343;SDS011;59146;43.850;25.948;2023-06-04T03:35:49;15.77;;;4.60;;
71343;SDS011;59146;43.850;25.948;2023-06-04T03:38:17;15.65;;;4.80;;
71343;SDS011;59146;43.850;25.948;2023-06-04T03:40:43;12.63;;;3.83;;
71343;SDS011;59146;43.850;25.948;2023-06-04T03:43:10;9.70;;;3.15;;
71343;SDS011;59146;43.850;25.948;2023-06-04T03:45:35;15.07;;;3.90;;
71343;SDS011;59146;43.850;25.948;2023-06-04T03:48:00;13.73;;;3.95;;
71343;SDS011;59146;43.850;25.948;2023-06-04T03:50:26;11.30;;;3.55;;
71343;SDS011;59146;43.850;25.948;2023-06-04T03:52:51;9.98;;;3.63;;
71343;SDS011;59146;43.850;25.948;2023-06-04T03:55:17;14.90;;;4.00;;
71343;SDS011;59146;43.850;25.948;2023-06-04T03:57:43;9.00;;;3.45;;
71343;SDS011;59146;43.850;25.948;2023-06-04T04:00:10;15.77;;;3.33;;
71343;SDS011;59146;43.850;25.948;2023-06-04T04:02:38;22.35;;;3.47;;
71343;SDS011;59146;43.850;25.948;2023-06-04T04:05:04;8.05;;;3.55;;
71343;SDS011;59146;43.850;25.948;2023-06-04T04:07:30;10.38;;;3.50;;
71343;SDS011;59146;43.850;25.948;2023-06-04T04:09:55;17.58;;;4.50;;
71343;SDS011;59146;43.850;25.948;2023-06-04T04:12:21;14.63;;;4.70;;
71343;SDS011;59146;43.850;25.948;2023-06-04T04:14:47;19.80;;;4.32;;
71343;SDS011;59146;43.850;25.948;2023-06-04T04:17:13;15.50;;;3.63;;
71343;SDS011;59146;43.850;25.948;2023-06-04T04:19:39;12.18;;;3.38;;
71343;SDS011;59146;43.850;25.948;2023-06-04T04:22:04;14.32;;;3.90;;
71343;SDS011;59146;43.850;25.948;2023-06-04T04:24:31;7.68;;;2.67;;
71343;SDS011;59146;43.850;25.948;2023-06-04T04:26:59;7.82;;;3.10;;
71343;SDS011;59146;43.850;25.948;2023-06-04T04:29:25;5.30;;;3.00;;
71343;SDS011;59146;43.850;25.948;2023-06-04T04:31:50;4.07;;;2.30;;
71343;SDS011;59146;43.850;25.948;2023-06-04T04:34:17;8.10;;;2.53;;
71343;SDS011;59146;43.850;25.948;2023-06-04T04:36:45;9.95;;;2.58;;
71343;SDS011;59146;43.850;25.948;2023-06-04T04:39:26;9.68;;;2.33;;
71343;SDS011;59146;43.850;25.948;2023-06-04T04:41:51;3.17;;;2.10;;
71343;SDS011;59146;43.850;25.948;2023-06-04T04:44:17;4.80;;;2.60;;
71343;SDS011;59146;43.850;25.948;2023-06-04T04:46:43;7.40;;;2.72;;
71343;SDS011;59146;43.850;25.948;2023-06-04T04:49:08;7.63;;;2.92;;
71343;SDS011;59146;43.850;25.948;2023-06-04T04:51:34;9.25;;;3.42;;
71343;SDS011;59146;43.850;25.948;2023-06-04T04:54:00;9.73;;;3.40;;
71343;SDS011;59146;43.850;25.948;2023-06-04T04:56:25;14.70;;;4.20;;
71343;SDS011;59146;43.850;25.948;2023-06-04T04:58:52;11.70;;;3.80;;
71343;SDS011;59146;43.850;25.948;2023-06-04T05:01:17;15.93;;;3.70;;
71343;SDS011;59146;43.850;25.948;2023-06-04T05:03:43;16.17;;;4.50;;
71343;SDS011;59146;43.850;25.948;2023-06-04T05:06:08;21.67;;;4.47;;
71343;SDS011;59146;43.850;25.948;2023-06-04T05:08:34;11.68;;;4.00;;
71343;SDS011;59146;43.850;25.948;2023-06-04T05:10:59;13.50;;;4.10;;
71343;SDS011;59146;43.850;25.948;2023-06-04T05:13:25;13.18;;;4.30;;
71343;SDS011;59146;43.850;25.948;2023-06-04T05:15:51;10.85;;;3.97;;
71343;SDS011;59146;43.850;25.948;2023-06-04T05:18:18;13.23;;;3.88;;
71343;SDS011;59146;43.850;25.948;2023-06-04T05:20:45;6.05;;;3.22;;
71343;SDS011;59146;43.850;25.948;2023-06-04T05:23:11;9.85;;;3.15;;
71343;SDS011;59146;43.850;25.948;2023-06-04T05:25:37;7.40;;;2.60;;
71343;SDS011;59146;43.850;25.948;2023-06-04T05:28:03;5.55;;;2.13;;
71343;SDS011;59146;43.850;25.948;2023-06-04T05:30:30;9.85;;;3.40;;
71343;SDS011;59146;43.850;25.948;2023-06-04T05:32:56;12.93;;;2.10;;
71343;SDS011;59146;43.850;25.948;2023-06-04T05:35:22;3.40;;;1.98;;
71343;SDS011;59146;43.850;25.948;2023-06-04T05:37:47;10.13;;;3.35;;
71343;SDS011;59146;43.850;25.948;2023-06-04T05:40:19;4.25;;;2.28;;
71343;SDS011;59146;43.850;25.948;2023-06-04T05:42:47;3.53;;;1.90;;
71343;SDS011;59146;43.850;25.948;2023-06-04T05:45:13;12.15;;;2.90;;
71343;SDS011;59146;43.850;25.948;2023-06-04T05:47:39;5.63;;;2.10;;
71343;SDS011;59146;43.850;25.948;2023-06-04T05:50:05;6.35;;;2.20;;
71343;SDS011;59146;43.850;25.948;2023-06-04T05:52:31;3.40;;;1.98;;
71343;SDS011;59146;43.850;25.948;2023-06-04T05:54:57;8.23;;;2.50;;
71343;SDS011;59146;43.850;25.948;2023-06-04T05:57:23;9.07;;;2.90;;
71343;SDS011;59146;43.850;25.948;2023-06-04T05:59:48;6.28;;;2.97;;
71343;SDS011;59146;43.850;25.948;2023-06-04T06:02:13;4.82;;;2.72;;
71343;SDS011;59146;43.850;25.948;2023-06-04T06:04:39;10.30;;;2.80;;
71343;SDS011;59146;43.850;25.948;2023-06-04T06:07:05;8.80;;;3.17;;
71343;SDS011;59146;43.850;25.948;2023-06-04T06:09:31;7.72;;;2.88;;
71343;SDS011;59146;43.850;25.948;2023-06-04T06:11:57;6.97;;;2.50;;
71343;SDS011;59146;43.850;25.948;2023-06-04T06:14:23;10.70;;;3.17;;
71343;SDS011;59146;43.850;25.948;2023-06-04T06:16:48;7.55;;;2.50;;
71343;SDS011;59146;43.850;25.948;2023-06-04T06:19:14;5.00;;;2.40;;
71343;SDS011;59146;43.850;25.948;2023-06-04T06:21:40;8.00;;;2.17;;
71343;SDS011;59146;43.850;25.948;2023-06-04T06:24:05;11.95;;;2.58;;
71343;SDS011;59146;43.850;25.948;2023-06-04T06:26:31;7.63;;;2.30;;
71343;SDS011;59146;43.850;25.948;2023-06-04T06:28:56;8.93;;;2.42;;
71343;SDS011;59146;43.850;25.948;2023-06-04T06:31:22;14.55;;;2.92;;
71343;SDS011;59146;43.850;25.948;2023-06-04T06:33:47;7.78;;;2.42;;
71343;SDS011;59146;43.850;25.948;2023-06-04T06:36:13;12.68;;;2.60;;
71343;SDS011;59146;43.850;25.948;2023-06-04T06:38:39;7.72;;;3.03;;
71343;SDS011;59146;43.850;25.948;2023-06-04T06:41:05;14.18;;;3.45;;
71343;SDS011;59146;43.850;25.948;2023-06-04T06:43:30;13.07;;;3.00;;
71343;SDS011;59146;43.850;25.948;2023-06-04T06:45:57;10.77;;;3.10;;
71343;SDS011;59146;43.850;25.948;2023-06-04T06:48:22;4.68;;;2.80;;
71343;SDS011;59146;43.850;25.948;2023-06-04T06:50:48;6.07;;;2.50;;
71343;SDS011;59146;43.850;25.948;2023-06-04T06:53:13;11.60;;;2.28;;
71343;SDS011;59146;43.850;25.948;2023-06-04T06:55:39;6.88;;;2.20;;
71343;SDS011;59146;43.850;25.948;2023-06-04T06:58:04;5.53;;;2.22;;
71343;SDS011;59146;43.850;25.948;2023-06-04T07:00:30;7.00;;;2.20;;
71343;SDS011;59146;43.850;25.948;2023-06-04T07:02:55;3.15;;;2.05;;
71343;SDS011;59146;43.850;25.948;2023-06-04T07:05:21;7.03;;;2.33;;
71343;SDS011;59146;43.850;25.948;2023-06-04T07:07:46;7.50;;;2.03;;
71343;SDS011;59146;43.850;25.948;2023-06-04T07:10:13;3.70;;;2.20;;
71343;SDS011;59146;43.850;25.948;2023-06-04T07:12:39;8.48;;;2.40;;
71343;SDS011;59146;43.850;25.948;2023-06-04T07:15:05;6.95;;;2.20;;
71343;SDS011;59146;43.850;25.948;2023-06-04T07:17:31;6.88;;;2.20;;
71343;SDS011;59146;43.850;25.948;2023-06-04T07:19:57;4.65;;;2.10;;
71343;SDS011;59146;43.850;25.948;2023-06-04T07:22:23;4.72;;;2.20;;
71343;SDS011;59146;43.850;25.948;2023-06-04T07:24:48;3.00;;;2.40;;
71343;SDS011;59146;43.850;25.948;2023-06-04T07:27:14;3.25;;;1.95;;
71343;SDS011;59146;43.850;25.948;2023-06-04T07:29:40;7.22;;;2.55;;
71343;SDS011;59146;43.850;25.948;2023-06-04T07:32:07;5.07;;;2.10;;
71343;SDS011;59146;43.850;25.948;2023-06-04T07:34:33;6.35;;;2.15;;
71343;SDS011;59146;43.850;25.948;2023-06-04T07:36:58;5.80;;;2.22;;
71343;SDS011;59146;43.850;25.948;2023-06-04T07:39:24;5.38;;;2.17;;
71343;SDS011;59146;43.850;25.948;2023-06-04T07:41:49;3.53;;;2.22;;
71343;SDS011;59146;43.850;25.948;2023-06-04T07:44:15;7.22;;;2.50;;
71343;SDS011;59146;43.850;25.948;2023-06-04T07:46:40;4.00;;;2.33;;
71343;SDS011;59146;43.850;25.948;2023-06-04T07:49:06;6.20;;;3.00;;
71343;SDS011;59146;43.850;25.948;2023-06-04T07:51:31;3.72;;;2.10;;
71343;SDS011;59146;43.850;25.948;2023-06-04T07:53:57;6.30;;;2.10;;
71343;SDS011;59146;43.850;25.948;2023-06-04T07:56:22;7.50;;;2.17;;
71343;SDS011;59146;43.850;25.948;2023-06-04T07:58:48;4.85;;;2.60;;
71343;SDS011;59146;43.850;25.948;2023-06-04T08:01:13;3.65;;;2.10;;
71343;SDS011;59146;43.850;25.948;2023-06-04T08:03:39;10.07;;;1.90;;
71343;SDS011;59146;43.850;25.948;2023-06-04T08:06:06;4.28;;;2.10;;
71343;SDS011;59146;43.850;25.948;2023-06-04T08:08:32;10.40;;;2.03;;
71343;SDS011;59146;43.850;25.948;2023-06-04T08:10:59;6.40;;;2.55;;
71343;SDS011;59146;43.850;25.948;2023-06-04T08:13:24;8.13;;;2.25;;
71343;SDS011;59146;43.850;25.948;2023-06-04T08:15:50;3.78;;;1.60;;
71343;SDS011;59146;43.850;25.948;2023-06-04T08:18:15;9.25;;;2.50;;
71343;SDS011;59146;43.850;25.948;2023-06-04T08:20:41;4.22;;;1.60;;
71343;SDS011;59146;43.850;25.948;2023-06-04T08:23:06;6.35;;;2.00;;
71343;SDS011;59146;43.850;25.948;2023-06-04T08:25:31;1.98;;;1.60;;
71343;SDS011;59146;43.850;25.948;2023-06-04T08:27:57;3.38;;;1.67;;
71343;SDS011;59146;43.850;25.948;2023-06-04T08:30:23;7.07;;;2.17;;
71343;SDS011;59146;43.850;25.948;2023-06-04T08:32:48;3.47;;;1.90;;
71343;SDS011;59146;43.850;25.948;2023-06-04T08:35:13;6.45;;;2.67;;
71343;SDS011;59146;43.850;25.948;2023-06-04T08:37:39;10.07;;;2.20;;
71343;SDS011;59146;43.850;25.948;2023-06-04T08:40:05;6.30;;;1.70;;
71343;SDS011;59146;43.850;25.948;2023-06-04T08:42:34;3.35;;;2.03;;
71343;SDS011;59146;43.850;25.948;2023-06-04T08:45:06;5.68;;;1.80;;
71343;SDS011;59146;43.850;25.948;2023-06-04T08:47:36;6.50;;;1.98;;
71343;SDS011;59146;43.850;25.948;2023-06-04T08:50:02;5.38;;;1.75;;
71343;SDS011;59146;43.850;25.948;2023-06-04T08:52:31;4.25;;;1.58;;
71343;SDS011;59146;43.850;25.948;2023-06-04T08:54:56;7.90;;;2.50;;
71343;SDS011;59146;43.850;25.948;2023-06-04T08:57:22;4.22;;;1.60;;
71343;SDS011;59146;43.850;25.948;2023-06-04T08:59:48;4.72;;;1.90;;
71343;SDS011;59146;43.850;25.948;2023-06-04T09:02:15;9.10;;;2.63;;
71343;SDS011;59146;43.850;25.948;2023-06-04T09:04:41;5.32;;;1.90;;
71343;SDS011;59146;43.850;25.948;2023-06-04T09:07:08;6.50;;;1.98;;
71343;SDS011;59146;43.850;25.948;2023-06-04T09:09:37;4.18;;;1.90;;
71343;SDS011;59146;43.850;25.948;2023-06-04T09:12:03;4.35;;;2.50;;
71343;SDS011;59146;43.850;25.948;2023-06-04T09:14:33;4.20;;;1.83;;
71343;SDS011;59146;43.850;25.948;2023-06-04T09:16:58;5.38;;;2.13;;
71343;SDS011;59146;43.850;25.948;2023-06-04T09:19:24;7.78;;;2.00;;
71343;SDS011;59146;43.850;25.948;2023-06-04T09:24:17;5.18;;;1.80;;
71343;SDS011;59146;43.850;25.948;2023-06-04T09:26:43;8.02;;;1.80;;
71343;SDS011;59146;43.850;25.948;2023-06-04T09:29:08;2.92;;;2.05;;
71343;SDS011;59146;43.850;25.948;2023-06-04T09:31:34;4.75;;;2.08;;
71343;SDS011;59146;43.850;25.948;2023-06-04T09:34:02;4.22;;;1.70;;
71343;SDS011;59146;43.850;25.948;2023-06-04T09:36:32;3.92;;;2.00;;
71343;SDS011;59146;43.850;25.948;2023-06-04T09:38:58;3.83;;;2.37;;
71343;SDS011;59146;43.850;25.948;2023-06-04T09:41:24;6.85;;;1.80;;
71343;SDS011;59146;43.850;25.948;2023-06-04T09:43:51;2.75;;;1.73;;
71343;SDS011;59146;43.850;25.948;2023-06-04T09:46:24;3.45;;;1.52;;
71343;SDS011;59146;43.850;25.948;2023-06-04T09:48:58;5.32;;;1.80;;
71343;SDS011;59146;43.850;25.948;2023-06-04T09:51:28;6.97;;;2.13;;
71343;SDS011;59146;43.850;25.948;2023-06-04T09:53:57;4.82;;;2.05;;
71343;SDS011;59146;43.850;25.948;2023-06-04T09:56:24;7.80;;;2.00;;
71343;SDS011;59146;43.850;25.948;2023-06-04T09:58:55;7.72;;;2.22;;
71343;SDS011;59146;43.850;25.948;2023-06-04T10:01:23;4.25;;;2.20;;
71343;SDS011;59146;43.850;25.948;2023-06-04T10:03:51;6.07;;;2.10;;
71343;SDS011;59146;43.850;25.948;2023-06-04T10:06:18;2.58;;;1.80;;
71343;SDS011;59146;43.850;25.948;2023-06-04T10:08:45;3.47;;;1.85;;
71343;SDS011;59146;43.850;25.948;2023-06-04T10:11:11;7.03;;;2.03;;
71343;SDS011;59146;43.850;25.948;2023-06-04T10:13:43;5.60;;;2.78;;
71343;SDS011;59146;43.850;25.948;2023-06-04T10:16:13;2.67;;;2.15;;
71343;SDS011;59146;43.850;25.948;2023-06-04T10:18:39;5.15;;;2.42;;
71343;SDS011;59146;43.850;25.948;2023-06-04T10:21:06;12.20;;;2.28;;
71343;SDS011;59146;43.850;25.948;2023-06-04T10:23:33;4.40;;;2.50;;
71343;SDS011;59146;43.850;25.948;2023-06-04T10:25:58;6.20;;;2.30;;
71343;SDS011;59146;43.850;25.948;2023-06-04T10:28:25;4.07;;;2.03;;
71343;SDS011;59146;43.850;25.948;2023-06-04T10:30:51;5.25;;;1.77;;
71343;SDS011;59146;43.850;25.948;2023-06-04T10:33:17;9.50;;;1.70;;
71343;SDS011;59146;43.850;25.948;2023-06-04T10:35:45;5.80;;;1.85;;
71343;SDS011;59146;43.850;25.948;2023-06-04T10:38:11;3.42;;;1.88;;
71343;SDS011;59146;43.850;25.948;2023-06-04T10:40:38;6.57;;;1.98;;
71343;SDS011;59146;43.850;25.948;2023-06-04T10:43:05;5.60;;;2.55;;
71343;SDS011;59146;43.850;25.948;2023-06-04T10:45:32;5.13;;;1.58;;
71343;SDS011;59146;43.850;25.948;2023-06-04T10:48:10;4.55;;;2.00;;
71343;SDS011;59146;43.850;25.948;2023-06-04T10:50:52;9.88;;;1.90;;
71343;SDS011;59146;43.850;25.948;2023-06-04T10:53:18;4.75;;;2.13;;
71343;SDS011;59146;43.850;25.948;2023-06-04T10:55:47;9.45;;;2.17;;
71343;SDS011;59146;43.850;25.948;2023-06-04T10:58:14;5.63;;;1.92;;
71343;SDS011;59146;43.850;25.948;2023-06-04T11:00:41;7.15;;;2.20;;
71343;SDS011;59146;43.850;25.948;2023-06-04T11:03:09;4.95;;;1.90;;
71343;SDS011;59146;43.850;25.948;2023-06-04T11:08:04;6.57;;;1.95;;
71343;SDS011;59146;43.850;25.948;2023-06-04T11:10:39;9.80;;;2.40;;
71343;SDS011;59146;43.850;25.948;2023-06-04T11:13:06;6.85;;;2.50;;
71343;SDS011;59146;43.850;25.948;2023-06-04T11:15:42;3.80;;;1.77;;
71343;SDS011;59146;43.850;25.948;2023-06-04T11:18:16;5.15;;;2.28;;
71343;SDS011;59146;43.850;25.948;2023-06-04T11:20:46;3.20;;;2.00;;
71343;SDS011;59146;43.850;25.948;2023-06-04T11:23:13;6.03;;;2.20;;
71343;SDS011;59146;43.850;25.948;2023-06-04T11:25:39;7.07;;;2.05;;
71343;SDS011;59146;43.850;25.948;2023-06-04T11:28:05;4.25;;;2.42;;
71343;SDS011;59146;43.850;25.948;2023-06-04T11:30:31;4.38;;;2.10;;
71343;SDS011;59146;43.850;25.948;2023-06-04T11:33:00;7.43;;;2.70;;
71343;SDS011;59146;43.850;25.948;2023-06-04T11:35:30;4.50;;;2.50;;
71343;SDS011;59146;43.850;25.948;2023-06-04T11:37:56;5.93;;;2.13;;
71343;SDS011;59146;43.850;25.948;2023-06-04T11:40:23;7.45;;;2.38;;
71343;SDS011;59146;43.850;25.948;2023-06-04T11:42:49;2.60;;;1.95;;
71343;SDS011;59146;43.850;25.948;2023-06-04T11:45:18;3.08;;;2.30;;
71343;SDS011;59146;43.850;25.948;2023-06-04T11:47:55;5.22;;;2.10;;
71343;SDS011;59146;43.850;25.948;2023-06-04T11:50:22;4.55;;;2.00;;
71343;SDS011;59146;43.850;25.948;2023-06-04T11:52:48;3.33;;;2.67;;
71343;SDS011;59146;43.850;25.948;2023-06-04T11:55:15;11.90;;;2.70;;
71343;SDS011;59146;43.850;25.948;2023-06-04T11:57:42;4.50;;;2.20;;
71343;SDS011;59146;43.850;25.948;2023-06-04T12:00:09;2.95;;;1.73;;
71343;SDS011;59146;43.850;25.948;2023-06-04T12:02:38;5.03;;;1.80;;
71343;SDS011;59146;43.850;25.948;2023-06-04T12:05:13;5.88;;;1.90;;
71343;SDS011;59146;43.850;25.948;2023-06-04T12:07:40;3.75;;;2.00;;
71343;SDS011;59146;43.850;25.948;2023-06-04T12:10:09;7.00;;;2.60;;
71343;SDS011;59146;43.850;25.948;2023-06-04T12:12:36;6.30;;;2.05;;
71343;SDS011;59146;43.850;25.948;2023-06-04T12:15:03;4.60;;;2.30;;
71343;SDS011;59146;43.850;25.948;2023-06-04T12:17:30;3.97;;;2.35;;
71343;SDS011;59146;43.850;25.948;2023-06-04T12:19:57;4.38;;;1.90;;
71343;SDS011;59146;43.850;25.948;2023-06-04T12:22:23;6.00;;;2.33;;
71343;SDS011;59146;43.850;25.948;2023-06-04T12:27:21;7.38;;;1.98;;
71343;SDS011;59146;43.850;25.948;2023-06-04T12:29:58;5.40;;;1.70;;
71343;SDS011;59146;43.850;25.948;2023-06-04T12:32:25;4.60;;;2.30;;
71343;SDS011;59146;43.850;25.948;2023-06-04T12:34:51;4.53;;;1.60;;
71343;SDS011;59146;43.850;25.948;2023-06-04T12:37:17;4.60;;;1.70;;
71343;SDS011;59146;43.850;25.948;2023-06-04T12:39:43;5.72;;;1.90;;
71343;SDS011;59146;43.850;25.948;2023-06-04T12:42:08;11.90;;;2.83;;
71343;SDS011;59146;43.850;25.948;2023-06-04T12:44:40;9.15;;;2.17;;
71343;SDS011;59146;43.850;25.948;2023-06-04T12:47:09;3.05;;;1.88;;
71343;SDS011;59146;43.850;25.948;2023-06-04T12:49:34;3.63;;;2.30;;
71343;SDS011;59146;43.850;25.948;2023-06-04T12:52:00;3.58;;;1.85;;
71343;SDS011;59146;43.850;25.948;2023-06-04T12:54:26;6.40;;;2.55;;
71343;SDS011;59146;43.850;25.948;2023-06-04T12:56:52;4.88;;;1.73;;
71343;SDS011;59146;43.850;25.948;2023-06-04T12:59:18;5.88;;;2.28;;
71343;SDS011;59146;43.850;25.948;2023-06-04T13:01:44;3.67;;;1.98;;
71343;SDS011;59146;43.850;25.948;2023-06-04T13:04:09;6.22;;;2.53;;
71343;SDS011;59146;43.850;25.948;2023-06-04T13:06:35;3.72;;;2.03;;
71343;SDS011;59146;43.850;25.948;2023-06-04T13:09:02;3.60;;;1.75;;
71343;SDS011;59146;43.850;25.948;2023-06-04T13:11:33;7.45;;;2.00;;
71343;SDS011;59146;43.850;25.948;2023-06-04T13:14:08;4.75;;;2.30;;
71343;SDS011;59146;43.850;25.948;2023-06-04T13:16:34;10.40;;;2.00;;
71343;SDS011;59146;43.850;25.948;2023-06-04T13:19:00;5.65;;;2.65;;
71343;SDS011;59146;43.850;25.948;2023-06-04T13:21:26;6.03;;;2.35;;
71343;SDS011;59146;43.850;25.948;2023-06-04T13:23:52;3.17;;;2.00;;
71343;SDS011;59146;43.850;25.948;2023-06-04T13:26:18;9.68;;;2.47;;
71343;SDS011;59146;43.850;25.948;2023-06-04T13:28:43;5.53;;;2.33;;
71343;SDS011;59146;43.850;25.948;2023-06-04T13:31:09;3.65;;;2.00;;
71343;SDS011;59146;43.850;25.948;2023-06-04T13:33:34;6.88;;;2.22;;
71343;SDS011;59146;43.850;25.948;2023-06-04T13:36:01;6.88;;;2.35;;
71343;SDS011;59146;43.850;25.948;2023-06-04T13:38:28;5.70;;;2.15;;
71343;SDS011;59146;43.850;25.948;2023-06-04T13:40:53;3.55;;;2.20;;
71343;SDS011;59146;43.850;25.948;2023-06-04T13:43:18;10.75;;;2.22;;
71343;SDS011;59146;43.850;25.948;2023-06-04T13:45:44;4.57;;;1.90;;
71343;SDS011;59146;43.850;25.948;2023-06-04T13:48:11;3.78;;;2.13;;
71343;SDS011;59146;43.850;25.948;2023-06-04T13:50:37;5.88;;;2.10;;
71343;SDS011;59146;43.850;25.948;2023-06-04T13:53:02;3.90;;;2.22;;
71343;SDS011;59146;43.850;25.948;2023-06-04T13:55:27;4.90;;;2.20;;
71343;SDS011;59146;43.850;25.948;2023-06-04T13:57:54;2.85;;;2.15;;
71343;SDS011;59146;43.850;25.948;2023-06-04T14:00:20;3.28;;;2.10;;
71343;SDS011;59146;43.850;25.948;2023-06-04T14:02:46;8.65;;;1.98;;
71343;SDS011;59146;43.850;25.948;2023-06-04T14:05:17;4.38;;;2.10;;
71343;SDS011;59146;43.850;25.948;2023-06-04T14:07:43;8.70;;;2.63;;
71343;SDS011;59146;43.850;25.948;2023-06-04T14:10:09;7.60;;;2.50;;
71343;SDS011;59146;43.850;25.948;2023-06-04T14:12:36;4.13;;;2.50;;
71343;SDS011;59146;43.850;25.948;2023-06-04T14:15:03;8.30;;;2.38;;
71343;SDS011;59146;43.850;25.948;2023-06-04T14:17:29;5.72;;;2.05;;
71343;SDS011;59146;43.850;25.948;2023-06-04T14:19:54;6.13;;;2.28;;
71343;SDS011;59146;43.850;25.948;2023-06-04T14:22:20;13.77;;;2.22;;
71343;SDS011;59146;43.850;25.948;2023-06-04T14:24:45;3.83;;;2.03;;
71343;SDS011;59146;43.850;25.948;2023-06-04T14:27:11;4.88;;;2.05;;
71343;SDS011;59146;43.850;25.948;2023-06-04T14:29:36;3.30;;;2.17;;
71343;SDS011;59146;43.850;25.948;2023-06-04T14:32:02;2.75;;;1.63;;
71343;SDS011;59146;43.850;25.948;2023-06-04T14:34:29;3.63;;;2.38;;